Time;durP1;ratioP1;P1;durP2;ratioP2;P2;SDS_P1;SDS_P2;PMS_P1;PMS_P2;Temp;Humidity;BMP_temperature;BMP_pressure;BME280_temperature;BME280_humidity;BME280_pressure;Samples;Min_cycle;Max_cycle;Signal;HPM_P1;HPM_P2
2022/11/16 00:01:26;;;;;;;7.18;3.45;;;13.70;99.90;;;;;;5025961;28;20559;-72
2022/11/16 00:03:53;;;;;;;6.72;4.05;;;13.60;99.90;;;;;;5027700;28;20036;-73
2022/11/16 00:06:22;;;;;;;8.68;4.32;;;13.60;99.90;;;;;;5027510;28;20021;-73
2022/11/16 00:11:36;;;;;;;4.07;3.60;;;13.50;99.90;;;;;;5026270;28;20036;-74
2022/11/16 00:14:05;;;;;;;4.90;3.88;;;13.60;99.90;;;;;;5025419;28;20017;-74
2022/11/16 00:16:33;;;;;;;7.80;3.95;;;13.60;99.90;;;;;;5029251;28;20640;-73
2022/11/16 00:19:01;;;;;;;4.63;3.80;;;13.60;99.90;;;;;;5027330;28;20500;-73
2022/11/16 00:21:30;;;;;;;6.65;3.65;;;13.70;99.90;;;;;;5028526;28;20029;-73
2022/11/16 00:23:56;;;;;;;5.10;3.28;;;13.70;99.90;;;;;;5032092;28;20052;-74
2022/11/16 00:26:25;;;;;;;4.38;3.90;;;13.60;99.90;;;;;;5033840;28;20017;-74
2022/11/16 00:28:52;;;;;;;4.28;3.55;;;13.60;99.90;;;;;;5031373;28;20021;-73
2022/11/16 00:31:19;;;;;;;8.18;3.97;;;13.60;99.90;;;;;;5030074;28;20545;-74
2022/11/16 00:33:45;;;;;;;7.57;3.83;;;13.70;99.90;;;;;;5032103;28;20034;-74
2022/11/16 00:36:12;;;;;;;5.05;4.40;;;13.60;99.90;;;;;;5030282;28;20037;-74
2022/11/16 00:38:38;;;;;;;6.35;3.80;;;13.60;99.90;;;;;;5031046;28;20422;-74
2022/11/16 00:41:07;;;;;;;5.68;3.90;;;13.50;99.90;;;;;;5029529;28;21541;-75
2022/11/16 00:43:34;;;;;;;5.47;4.22;;;13.60;99.90;;;;;;5033288;28;20422;-75
2022/11/16 00:46:00;;;;;;;4.13;3.72;;;13.60;99.90;;;;;;5030350;28;20026;-74
2022/11/16 00:48:28;;;;;;;5.22;4.25;;;13.60;99.90;;;;;;5031636;28;20021;-76
2022/11/16 00:50:56;;;;;;;6.70;4.40;;;13.60;99.90;;;;;;5031796;28;20099;-73
2022/11/16 00:53:24;;;;;;;6.53;4.50;;;13.60;99.90;;;;;;5033982;28;20067;-75
2022/11/16 00:55:49;;;;;;;4.38;3.78;;;13.60;99.90;;;;;;5033290;28;20104;-75
2022/11/16 00:58:15;;;;;;;4.95;3.90;;;13.70;99.90;;;;;;5032239;28;20108;-75
2022/11/16 01:00:44;;;;;;;5.55;4.13;;;13.70;99.90;;;;;;5031098;28;20901;-76
2022/11/16 01:03:10;;;;;;;5.38;4.18;;;13.70;99.90;;;;;;5031494;28;20067;-74
2022/11/16 01:05:36;;;;;;;5.95;4.13;;;13.70;99.90;;;;;;5035650;28;20029;-75
2022/11/16 01:08:02;;;;;;;8.43;4.50;;;13.70;99.90;;;;;;5032733;28;20025;-75
2022/11/16 01:10:28;;;;;;;6.60;4.70;;;13.70;99.90;;;;;;5032317;28;20106;-76
2022/11/16 01:12:54;;;;;;;6.25;4.18;;;13.60;99.90;;;;;;5029722;28;20064;-76
2022/11/16 01:15:22;;;;;;;6.95;4.47;;;13.60;99.90;;;;;;5032981;28;20029;-75
2022/11/16 01:17:48;;;;;;;6.63;4.55;;;13.70;99.90;;;;;;5030495;28;20053;-76
2022/11/16 01:20:26;;;;;;;8.00;4.50;;;13.60;99.90;;;;;;5031485;28;20032;-75
2022/11/16 01:22:51;;;;;;;5.80;4.85;;;13.70;99.90;;;;;;5028714;28;20600;-75
2022/11/16 01:25:21;;;;;;;6.65;4.40;;;13.70;99.90;;;;;;5029974;28;20076;-76
2022/11/16 01:27:46;;;;;;;6.88;4.70;;;13.70;99.90;;;;;;5029703;28;20032;-74
2022/11/16 01:30:14;;;;;;;6.82;4.78;;;13.70;99.90;;;;;;5029307;28;20021;-75
2022/11/16 01:32:42;;;;;;;6.53;4.40;;;13.60;99.90;;;;;;5031298;28;20076;-77
2022/11/16 01:35:13;;;;;;;5.40;4.50;;;13.70;99.90;;;;;;5030725;28;20723;-77
2022/11/16 01:37:38;;;;;;;5.00;4.22;;;13.70;99.90;;;;;;5031013;28;20038;-76
2022/11/16 01:40:05;;;;;;;6.80;4.75;;;13.70;99.90;;;;;;5031730;28;20075;-76
2022/11/16 01:42:32;;;;;;;6.05;4.53;;;13.70;99.90;;;;;;5031477;28;20018;-76
2022/11/16 01:45:06;;;;;;;4.70;4.20;;;13.70;99.90;;;;;;5031540;28;20041;-75
2022/11/16 01:47:32;;;;;;;7.20;4.15;;;13.70;99.90;;;;;;5030181;28;20029;-77
2022/11/16 01:50:06;;;;;;;6.07;4.50;;;13.70;99.90;;;;;;5034162;28;20025;-76
2022/11/16 01:52:47;;;;;;;7.22;4.50;;;13.60;99.90;;;;;;5031337;28;20033;-75
2022/11/16 01:55:13;;;;;;;5.65;4.18;;;13.70;99.90;;;;;;5028882;28;20037;-75
2022/11/16 01:57:46;;;;;;;10.90;5.10;;;13.70;99.90;;;;;;5033029;28;20025;-75
2022/11/16 02:00:13;;;;;;;8.45;4.72;;;13.60;99.90;;;;;;5029269;28;20029;-74
2022/11/16 02:02:38;;;;;;;5.00;4.43;;;13.60;99.90;;;;;;5029861;28;20583;-73
2022/11/16 02:05:05;;;;;;;6.32;4.75;;;13.60;99.90;;;;;;5029656;28;20029;-74
2022/11/16 02:10:41;;;;;;;;;;;13.50;99.90;;;;;;5027907;28;20116;-76
2022/11/16 02:13:17;;;;;;;7.38;4.75;;;13.50;99.90;;;;;;5029919;28;19913;-74
2022/11/16 02:15:48;;;;;;;8.32;4.93;;;13.50;99.90;;;;;;5029333;28;20100;-75
2022/11/16 02:18:32;;;;;;;14.43;5.63;;;13.50;99.90;;;;;;5029745;28;20035;-75
2022/11/16 02:21:21;;;;;;;11.02;5.90;;;13.50;99.90;;;;;;5030457;28;20079;-75
2022/11/16 02:24:01;;;;;;;7.97;5.10;;;13.40;99.90;;;;;;5029250;28;20117;-74
2022/11/16 02:26:48;;;;;;;8.93;5.40;;;13.50;99.90;;;;;;5028875;28;20029;-74
2022/11/16 02:29:32;;;;;;;9.23;5.47;;;13.50;99.90;;;;;;5028910;28;20053;-75
2022/11/16 02:32:10;;;;;;;8.90;5.85;;;13.60;99.90;;;;;;5030520;28;20017;-75
2022/11/16 02:35:01;;;;;;;8.65;5.72;;;13.60;99.90;;;;;;5011561;28;20342;-77
2022/11/16 02:37:31;;;;;;;8.40;5.25;;;13.60;99.90;;;;;;5012577;28;20041;-75
2022/11/16 02:40:04;;;;;;;8.90;5.20;;;13.60;99.90;;;;;;5026151;28;20087;-76
2022/11/16 02:42:40;;;;;;;7.75;4.82;;;13.60;99.90;;;;;;5028132;28;20113;-76
2022/11/16 02:45:13;;;;;;;7.88;5.13;;;13.50;99.90;;;;;;5028423;28;20035;-76
2022/11/16 02:47:41;;;;;;;7.00;5.25;;;13.60;99.90;;;;;;5028091;28;20711;-76
2022/11/16 02:50:13;;;;;;;10.57;5.70;;;13.60;99.90;;;;;;5030625;28;20766;-76
2022/11/16 02:52:38;;;;;;;8.70;4.82;;;13.50;99.90;;;;;;5027630;28;20048;-75
2022/11/16 02:55:07;;;;;;;7.28;5.05;;;13.50;99.90;;;;;;5029131;28;20450;-75
2022/11/16 02:57:35;;;;;;;6.88;5.13;;;13.60;99.90;;;;;;5028164;28;21434;-76
2022/11/16 03:00:03;;;;;;;7.68;5.20;;;13.50;99.90;;;;;;5027392;28;20754;-75
2022/11/16 03:02:37;;;;;;;12.45;6.50;;;13.60;99.90;;;;;;5027992;28;20017;-75
2022/11/16 03:05:33;;;;;;;9.93;5.65;;;13.60;99.90;;;;;;5027265;28;20039;-74
2022/11/16 03:08:17;;;;;;;10.57;5.80;;;13.60;99.90;;;;;;5029454;28;20029;-75
2022/11/16 03:13:36;;;;;;;12.38;5.20;;;13.70;99.90;;;;;;5029317;28;20028;-75
2022/11/16 03:16:13;;;;;;;11.73;6.30;;;13.70;99.90;;;;;;5028950;28;20127;-75
2022/11/16 03:18:40;;;;;;;10.90;6.03;;;13.70;99.90;;;;;;5028296;28;20140;-75
2022/11/16 03:21:51;;;;;;;12.13;6.65;;;13.70;99.90;;;;;;5029406;28;20017;-75
2022/11/16 03:24:17;;;;;;;11.35;6.25;;;13.70;99.90;;;;;;5029378;28;20210;-74
2022/11/16 03:26:50;;;;;;;9.45;6.82;;;13.60;99.90;;;;;;5044190;28;20029;-75
2022/11/16 03:29:40;;;;;;;10.38;6.70;;;13.60;99.90;;;;;;5027298;28;20057;-75
2022/11/16 03:32:23;;;;;;;13.57;6.65;;;13.70;99.90;;;;;;5026725;28;20030;-75
2022/11/16 03:35:15;;;;;;;15.85;8.02;;;13.70;99.90;;;;;;5030951;28;20139;-75
2022/11/16 03:37:42;;;;;;;14.63;7.70;;;13.70;99.90;;;;;;5025575;28;20370;-76
2022/11/16 03:40:09;;;;;;;12.52;7.55;;;13.60;99.90;;;;;;5027068;28;20092;-75
2022/11/16 03:42:35;;;;;;;15.63;8.02;;;13.70;99.90;;;;;;5027685;28;20366;-75
2022/11/16 03:45:02;;;;;;;12.80;8.15;;;13.70;99.90;;;;;;5027833;28;20469;-75
2022/11/16 03:47:29;;;;;;;11.80;7.70;;;13.70;99.90;;;;;;5025477;28;20462;-75
2022/11/16 03:49:54;;;;;;;12.98;7.65;;;13.70;99.90;;;;;;5026636;28;20025;-77
2022/11/16 03:52:20;;;;;;;14.68;7.38;;;13.60;99.90;;;;;;5026357;28;20083;-74
2022/11/16 03:54:46;;;;;;;12.23;7.63;;;13.70;99.90;;;;;;5024941;28;20025;-76
2022/11/16 03:57:14;;;;;;;10.55;7.32;;;13.60;99.90;;;;;;5029067;28;20021;-75
2022/11/16 03:59:42;;;;;;;12.82;6.95;;;13.70;99.90;;;;;;5028420;28;20435;-76
2022/11/16 04:02:07;;;;;;;9.82;6.32;;;13.60;99.90;;;;;;5027800;28;20021;-75
2022/11/16 04:24:24;;;;;;;13.13;7.00;;;13.40;99.90;;;;;;5029100;28;20037;-75
2022/11/16 04:29:46;;;;;;;12.63;8.52;;;13.20;99.90;;;;;;5026892;28;20414;-74
2022/11/16 04:37:49;;;;;;;11.88;8.18;;;13.20;99.90;;;;;;5028618;28;20060;-74
2022/11/16 04:40:23;;;;;;;11.23;7.30;;;13.20;99.90;;;;;;5026432;28;20068;-75
2022/11/16 04:43:00;;;;;;;12.55;7.95;;;13.30;99.90;;;;;;5026435;28;20029;-74
2022/11/16 04:48:18;;;;;;;13.25;7.05;;;13.30;99.90;;;;;;5026851;28;20026;-75
2022/11/16 04:50:46;;;;;;;10.68;7.32;;;13.20;99.90;;;;;;5026136;28;20022;-75
2022/11/16 04:53:12;;;;;;;14.25;7.63;;;13.20;99.90;;;;;;5028009;28;20436;-76
2022/11/16 04:55:37;;;;;;;11.05;7.13;;;13.10;99.90;;;;;;5027816;28;20030;-75
2022/11/16 04:58:06;;;;;;;11.02;7.63;;;13.20;99.90;;;;;;5023798;28;20028;-75
2022/11/16 05:00:31;;;;;;;10.25;7.45;;;13.10;99.90;;;;;;5026827;28;20029;-76
2022/11/16 05:02:57;;;;;;;12.45;7.35;;;13.20;99.90;;;;;;5025278;28;20030;-75
2022/11/16 05:05:25;;;;;;;14.10;7.25;;;13.20;99.90;;;;;;5029140;28;20028;-75
2022/11/16 05:07:51;;;;;;;11.55;6.82;;;13.20;99.90;;;;;;5029671;28;20025;-75
2022/11/16 05:10:16;;;;;;;12.07;6.95;;;13.20;99.90;;;;;;5031603;28;20021;-75
2022/11/16 05:12:42;;;;;;;10.30;7.10;;;13.30;99.90;;;;;;5029423;28;20026;-76
2022/11/16 05:15:08;;;;;;;9.85;6.25;;;13.20;99.90;;;;;;5030226;28;20035;-76
2022/11/16 05:17:34;;;;;;;8.73;6.18;;;13.30;99.90;;;;;;5046043;28;20017;-76
2022/11/16 05:22:44;;;;;;;9.40;5.72;;;13.00;99.90;;;;;;5030183;28;20649;-75
2022/11/16 05:25:10;;;;;;;7.28;5.78;;;13.00;99.90;;;;;;5027717;28;20117;-74
2022/11/16 05:27:36;;;;;;;7.43;5.88;;;12.90;99.90;;;;;;5031198;28;20059;-74
2022/11/16 05:30:04;;;;;;;8.90;5.90;;;12.90;99.90;;;;;;5030614;28;20486;-74
2022/11/16 05:32:30;;;;;;;10.20;6.03;;;12.90;99.90;;;;;;5044099;28;20052;-74
2022/11/16 05:34:58;;;;;;;7.53;5.68;;;13.00;99.90;;;;;;5029792;28;20461;-74
2022/11/16 05:37:25;;;;;;;6.45;5.70;;;13.00;99.90;;;;;;5028914;28;20033;-74
2022/11/16 05:39:52;;;;;;;7.18;5.22;;;13.00;99.90;;;;;;5027153;28;20030;-74
2022/11/16 05:42:20;;;;;;;7.25;5.03;;;13.00;99.90;;;;;;5029552;28;20009;-73
2022/11/16 05:44:46;;;;;;;7.20;5.72;;;13.00;99.90;;;;;;5028989;28;20140;-74
2022/11/16 05:47:11;;;;;;;9.30;5.10;;;13.10;99.90;;;;;;5027470;28;20057;-76
2022/11/16 05:49:37;;;;;;;7.45;5.85;;;13.10;99.90;;;;;;5029900;28;20056;-75
2022/11/16 05:52:03;;;;;;;6.45;5.35;;;13.10;99.90;;;;;;5031706;28;20033;-77
2022/11/16 05:54:30;;;;;;;17.33;5.30;;;13.10;99.90;;;;;;5028134;28;20022;-74
2022/11/16 05:56:56;;;;;;;7.22;5.13;;;13.10;99.90;;;;;;5031470;28;20025;-75
2022/11/16 05:59:22;;;;;;;10.73;5.30;;;13.10;99.90;;;;;;5026703;28;20025;-76
2022/11/16 06:01:49;;;;;;;7.90;4.65;;;13.10;99.90;;;;;;5030094;28;21069;-75
2022/11/16 06:04:15;;;;;;;19.27;8.98;;;13.20;99.90;;;;;;5028657;28;20033;-72
2022/11/16 06:06:43;;;;;;;5.78;4.57;;;13.20;99.90;;;;;;5029931;28;20086;-73
2022/11/16 06:09:11;;;;;;;7.72;4.70;;;13.20;99.90;;;;;;5029407;28;20026;-74
2022/11/16 06:11:39;;;;;;;5.82;4.00;;;13.30;99.90;;;;;;5028356;28;20169;-75
2022/11/16 06:14:05;;;;;;;8.55;4.72;;;13.20;99.90;;;;;;5027580;28;20029;-75
2022/11/16 06:16:30;;;;;;;7.97;4.72;;;13.20;99.90;;;;;;5030851;28;20120;-74
2022/11/16 06:18:56;;;;;;;5.95;3.90;;;13.30;99.90;;;;;;5029041;28;20021;-75
2022/11/16 06:21:22;;;;;;;6.45;4.28;;;13.20;99.90;;;;;;5029437;28;20507;-74
2022/11/16 06:23:48;;;;;;;7.63;4.38;;;13.20;99.90;;;;;;5030113;28;20033;-74
2022/11/16 06:26:14;;;;;;;5.97;4.03;;;13.10;99.90;;;;;;5029831;28;20108;-74
2022/11/16 06:28:41;;;;;;;7.45;3.90;;;13.10;99.90;;;;;;5025521;28;20109;-73
2022/11/16 06:31:07;;;;;;;9.48;4.13;;;13.10;99.90;;;;;;5026547;28;20052;-70
2022/11/16 06:33:33;;;;;;;5.75;3.72;;;13.00;99.90;;;;;;5030452;28;20021;-73
2022/11/16 06:35:59;;;;;;;5.15;3.58;;;13.00;99.90;;;;;;5026594;28;20042;-73
2022/11/16 06:38:25;;;;;;;5.53;3.85;;;13.00;99.90;;;;;;5027914;28;20033;-73
2022/11/16 06:40:52;;;;;;;6.10;3.30;;;12.90;99.90;;;;;;5029242;28;20033;-74
2022/11/16 06:43:19;;;;;;;4.43;3.53;;;12.80;99.90;;;;;;5029542;28;20079;-74
2022/11/16 06:45:53;;;;;;;5.90;3.70;;;12.70;99.90;;;;;;5028862;28;20056;-74
2022/11/16 06:48:22;;;;;;;7.30;3.85;;;12.70;99.90;;;;;;5030295;28;20095;-74
2022/11/16 06:50:51;;;;;;;5.50;3.35;;;12.70;99.90;;;;;;5027842;28;20636;-75
2022/11/16 06:53:17;;;;;;;5.07;3.28;;;12.60;99.90;;;;;;5026941;28;20065;-73
2022/11/16 06:55:43;;;;;;;8.05;4.20;;;12.60;99.90;;;;;;5029167;28;20029;-74
2022/11/16 06:58:09;;;;;;;5.82;3.88;;;12.60;99.90;;;;;;5024994;28;20072;-74
2022/11/16 07:00:35;;;;;;;7.25;3.33;;;12.60;99.90;;;;;;5028601;28;20022;-75
2022/11/16 07:03:04;;;;;;;5.35;3.50;;;12.50;99.90;;;;;;5025724;28;20018;-74
2022/11/16 07:05:30;;;;;;;3.65;3.08;;;12.40;99.90;;;;;;5030386;28;20484;-75
2022/11/16 07:07:56;;;;;;;5.05;3.25;;;12.40;99.90;;;;;;5028558;28;20135;-75
2022/11/16 07:10:25;;;;;;;5.53;3.17;;;12.30;99.90;;;;;;5036714;28;21270;-74
2022/11/16 07:12:50;;;;;;;11.07;3.97;;;12.30;99.90;;;;;;5034906;28;20049;-74
2022/11/16 07:15:18;;;;;;;9.55;3.58;;;12.20;99.90;;;;;;5029309;28;20351;-75
2022/11/16 07:17:44;;;;;;;6.35;3.53;;;12.10;99.90;;;;;;5025446;28;20663;-75
2022/11/16 07:20:12;;;;;;;7.13;3.10;;;12.20;99.90;;;;;;5029389;28;20064;-74
2022/11/16 07:22:40;;;;;;;7.63;3.33;;;12.10;99.90;;;;;;5027506;28;20029;-74
2022/11/16 07:25:09;;;;;;;6.57;3.55;;;12.10;99.90;;;;;;5030566;28;20076;-74
2022/11/16 07:27:34;;;;;;;13.13;4.18;;;12.10;99.90;;;;;;5038933;28;20025;-74
2022/11/16 07:30:00;;;;;;;9.73;3.50;;;12.10;99.90;;;;;;5026289;28;20049;-72
2022/11/16 07:32:28;;;;;;;6.75;3.50;;;12.10;99.90;;;;;;5027864;28;20021;-74
2022/11/16 07:34:54;;;;;;;6.45;3.85;;;12.10;99.90;;;;;;5027491;28;20029;-73
2022/11/16 07:37:20;;;;;;;6.82;3.75;;;12.20;99.90;;;;;;5026975;28;20033;-74
2022/11/16 07:39:45;;;;;;;5.22;4.00;;;12.30;99.90;;;;;;5028050;28;20025;-75
2022/11/16 07:42:11;;;;;;;6.40;3.83;;;12.30;99.90;;;;;;5027835;28;20021;-74
2022/11/16 07:44:38;;;;;;;4.68;3.80;;;12.40;99.90;;;;;;5028724;28;20091;-74
2022/11/16 07:47:04;;;;;;;7.72;3.55;;;12.40;99.90;;;;;;5027228;28;20063;-73
2022/11/16 07:49:29;;;;;;;6.80;3.55;;;12.40;99.90;;;;;;5039387;28;20281;-74
2022/11/16 07:51:55;;;;;;;8.60;3.63;;;12.50;99.90;;;;;;5027210;28;20029;-74
2022/11/16 07:54:21;;;;;;;8.15;4.03;;;12.60;99.90;;;;;;5026476;28;20025;-74
2022/11/16 07:56:46;;;;;;;11.00;3.85;;;12.60;99.90;;;;;;5027276;28;20135;-74
2022/11/16 07:59:12;;;;;;;11.07;4.35;;;12.70;99.90;;;;;;5029765;28;20086;-73
2022/11/16 08:01:40;;;;;;;9.35;4.03;;;12.80;99.90;;;;;;5028284;28;20108;-74
2022/11/16 08:04:06;;;;;;;6.32;3.65;;;12.80;99.90;;;;;;5028055;28;20433;-74
2022/11/16 08:06:31;;;;;;;5.63;4.03;;;12.90;99.90;;;;;;5025661;28;20025;-74
2022/11/16 08:08:58;;;;;;;7.13;3.80;;;13.00;99.90;;;;;;5026766;28;20025;-75
2022/11/16 08:11:24;;;;;;;14.05;4.10;;;12.90;99.90;;;;;;5025844;28;20029;-74
2022/11/16 08:13:49;;;;;;;8.00;3.63;;;12.90;99.90;;;;;;5025021;28;20041;-74
2022/11/16 08:16:19;;;;;;;11.40;3.90;;;12.80;99.90;;;;;;5027572;28;20044;-74
2022/11/16 08:18:45;;;;;;;8.15;4.13;;;12.80;99.90;;;;;;5027590;28;20037;-74
2022/11/16 08:21:13;;;;;;;5.75;3.47;;;12.80;99.90;;;;;;5028171;28;20022;-73
2022/11/16 08:23:39;;;;;;;12.13;4.07;;;12.70;99.90;;;;;;5028391;28;20203;-75
2022/11/16 08:26:14;;;;;;;5.78;3.50;;;12.80;99.90;;;;;;5026812;28;20152;-74
2022/11/16 08:28:40;;;;;;;9.90;3.03;;;12.80;99.90;;;;;;5027212;28;20021;-72
2022/11/16 08:31:27;;;;;;;8.25;4.00;;;12.70;99.90;;;;;;5025762;28;20029;-74
2022/11/16 08:33:54;;;;;;;8.90;3.08;;;12.80;99.90;;;;;;5027531;28;20021;-73
2022/11/16 08:36:23;;;;;;;9.85;2.83;;;12.70;99.90;;;;;;5027055;28;20414;-73
2022/11/16 08:38:53;;;;;;;8.65;2.90;;;12.80;99.90;;;;;;5024185;28;20132;-75
2022/11/16 08:41:22;;;;;;;5.63;2.70;;;12.80;99.90;;;;;;5028002;28;20067;-74
2022/11/16 08:43:49;;;;;;;9.20;2.33;;;12.80;99.90;;;;;;5030239;28;20021;-74
2022/11/16 08:46:15;;;;;;;8.55;2.10;;;12.80;99.90;;;;;;5029908;28;20013;-75
2022/11/16 08:48:41;;;;;;;4.95;2.20;;;12.70;99.90;;;;;;5029344;28;20025;-75
2022/11/16 08:51:09;;;;;;;7.75;2.30;;;12.80;99.90;;;;;;5031316;28;20541;-75
2022/11/16 08:53:34;;;;;;;9.27;2.28;;;12.70;99.90;;;;;;5028212;28;20033;-75
2022/11/16 08:56:08;;;;;;;7.80;2.30;;;12.70;99.90;;;;;;5027707;28;20064;-74
2022/11/16 08:58:38;;;;;;;9.77;2.03;;;12.60;99.90;;;;;;5030709;28;20088;-75
2022/11/16 09:01:11;;;;;;;7.05;2.47;;;12.70;99.90;;;;;;5028760;28;20033;-75
2022/11/16 09:03:44;;;;;;;7.35;2.03;;;12.70;99.90;;;;;;5030805;28;20045;-75
2022/11/16 09:06:10;;;;;;;5.05;2.08;;;12.70;99.90;;;;;;5033257;28;20025;-74
2022/11/16 09:08:40;;;;;;;9.60;2.53;;;12.70;99.90;;;;;;5031491;28;20667;-75
2022/11/16 09:11:09;;;;;;;16.30;3.60;;;12.80;99.90;;;;;;5030993;28;20068;-76
2022/11/16 09:13:34;;;;;;;10.90;3.42;;;12.70;99.90;;;;;;5044868;28;20025;-75
2022/11/16 09:16:03;;;;;;;15.45;3.75;;;12.80;99.90;;;;;;5029474;28;20132;-74
2022/11/16 09:18:32;;;;;;;10.05;3.70;;;12.80;99.90;;;;;;5031589;28;20059;-75
2022/11/16 09:20:57;;;;;;;8.75;3.17;;;12.80;99.90;;;;;;5030726;28;20048;-74
2022/11/16 09:23:25;;;;;;;11.73;2.75;;;12.90;99.90;;;;;;5029783;28;20604;-74
2022/11/16 09:25:51;;;;;;;16.00;3.20;;;12.80;99.90;;;;;;5031176;28;20398;-74
2022/11/16 09:28:18;;;;;;;9.73;2.78;;;12.80;99.90;;;;;;5030455;28;20029;-75
2022/11/16 09:30:45;;;;;;;12.48;3.25;;;12.90;99.90;;;;;;5031079;28;20049;-74
2022/11/16 09:33:13;;;;;;;12.77;2.38;;;13.00;99.90;;;;;;5030003;28;20030;-74
2022/11/16 09:35:41;;;;;;;6.93;2.00;;;13.00;99.90;;;;;;5029272;28;20516;-74
2022/11/16 09:38:10;;;;;;;17.42;2.17;;;13.10;99.90;;;;;;5030700;28;20061;-75
2022/11/16 09:40:43;;;;;;;14.27;2.40;;;13.00;99.90;;;;;;5031275;28;20040;-74
2022/11/16 09:43:27;;;;;;;14.38;2.17;;;13.00;99.90;;;;;;5029486;28;20128;-74
2022/11/16 09:46:01;;;;;;;7.53;1.95;;;13.00;99.90;;;;;;5028958;28;20014;-75
2022/11/16 09:48:30;;;;;;;9.07;1.80;;;13.00;99.90;;;;;;5029182;28;20021;-75
2022/11/16 09:51:01;;;;;;;8.25;1.73;;;13.10;99.90;;;;;;5029382;28;20628;-76
2022/11/16 09:53:44;;;;;;;10.35;2.40;;;13.30;99.90;;;;;;5027580;28;20025;-75
2022/11/16 09:56:16;;;;;;;9.30;1.88;;;13.20;99.90;;;;;;5029992;28;20242;-75
2022/11/16 09:59:09;;;;;;;14.35;2.08;;;13.30;99.90;;;;;;5029810;28;20034;-74
2022/11/16 10:02:15;;;;;;;10.25;1.98;;;13.50;99.90;;;;;;5028876;28;20342;-74
2022/11/16 10:05:19;;;;;;;11.07;2.13;;;13.40;99.90;;;;;;5028021;28;20029;-73
2022/11/16 10:07:47;;;;;;;;;;;13.60;99.90;;;;;;5030999;28;20029;-74
2022/11/16 10:10:38;;;;;;;9.55;1.90;;;13.50;99.90;;;;;;5029689;28;19956;-73
2022/11/16 10:13:31;;;;;;;6.65;1.70;;;13.60;99.90;;;;;;5030446;28;20445;-74
2022/11/16 10:16:18;;;;;;;11.50;1.75;;;13.80;99.90;;;;;;5042976;28;20438;-74
2022/11/16 10:19:08;;;;;;;10.93;1.77;;;13.80;99.90;;;;;;5026961;28;20430;-74
2022/11/16 10:21:54;;;;;;;5.82;1.20;;;13.90;99.90;;;;;;5029122;28;20067;-74
2022/11/16 10:24:27;;;;;;;10.48;1.77;;;14.10;99.90;;;;;;5026817;28;20045;-73
2022/11/16 10:26:59;;;;;;;;;;;14.30;99.90;;;;;;5028927;28;20506;-74
2022/11/16 10:29:40;;;;;;;10.23;1.77;;;14.40;99.90;;;;;;5029111;28;19967;-74
2022/11/16 10:32:20;;;;;;;5.20;1.10;;;14.40;99.90;;;;;;5036646;28;20029;-74
2022/11/16 10:34:52;;;;;;;8.18;2.03;;;14.40;99.90;;;;;;5026386;28;20117;-74
2022/11/16 10:37:19;;;;;;;9.05;2.35;;;14.40;99.90;;;;;;5029268;28;20115;-74
2022/11/16 10:39:50;;;;;;;14.82;1.67;;;14.70;99.90;;;;;;5028133;28;20459;-73
2022/11/16 10:42:35;;;;;;;13.32;1.65;;;14.90;99.90;;;;;;5026714;28;20037;-73
2022/11/16 10:45:34;;;;;;;5.25;1.60;;;15.30;99.90;;;;;;5027059;28;20040;-73
2022/11/16 10:48:23;;;;;;;8.68;1.42;;;15.50;99.90;;;;;;5027408;28;20076;-73
2022/11/16 10:50:51;;;;;;;10.73;1.75;;;15.80;99.90;;;;;;5024784;28;20049;-73
2022/11/16 10:53:48;;;;;;;11.43;2.65;;;15.70;99.90;;;;;;5029142;28;20048;-71
2022/11/16 10:56:27;;;;;;;10.07;1.67;;;16.00;99.90;;;;;;5041168;28;20136;-73
2022/11/16 10:59:03;;;;;;;8.55;1.63;;;15.70;99.90;;;;;;5029277;28;20154;-73
2022/11/16 11:01:29;;;;;;;4.78;1.45;;;15.60;99.90;;;;;;5037696;28;20041;-73
2022/11/16 11:03:55;;;;;;;4.90;1.20;;;15.80;99.90;;;;;;5032893;28;20430;-72
2022/11/16 11:06:24;;;;;;;12.05;1.50;;;15.70;99.90;;;;;;5028935;28;20809;-73
2022/11/16 11:08:50;;;;;;;8.82;1.75;;;15.60;99.90;;;;;;5027365;28;21075;-71
2022/11/16 11:14:16;;;;;;;6.18;1.40;;;15.70;99.90;;;;;;5028673;28;20600;-73
2022/11/16 11:16:42;;;;;;;6.03;1.70;;;15.50;99.90;;;;;;5030019;28;20119;-73
2022/11/16 11:19:26;;;;;;;8.60;1.38;;;15.30;99.90;;;;;;5026852;28;20113;-72
2022/11/16 11:21:58;;;;;;;3.95;1.50;;;15.40;99.90;;;;;;5031918;28;20022;-72
2022/11/16 11:24:26;;;;;;;6.95;1.65;;;15.80;99.90;;;;;;5034889;28;20025;-72
2022/11/16 11:26:56;;;;;;;9.45;1.77;;;15.80;99.90;;;;;;5030639;28;20090;-73
2022/11/16 11:29:32;;;;;;;5.43;1.42;;;16.00;99.90;;;;;;5041289;28;20036;-73
2022/11/16 11:32:03;;;;;;;6.82;1.65;;;16.10;99.90;;;;;;5038337;28;20029;-72
2022/11/16 11:34:39;;;;;;;6.50;1.55;;;16.20;99.90;;;;;;5026074;28;20079;-73
2022/11/16 11:37:12;;;;;;;7.93;1.92;;;16.10;99.90;;;;;;5027191;28;20033;-73
2022/11/16 11:39:38;;;;;;;3.63;1.25;;;16.30;99.90;;;;;;5033281;28;20033;-72
2022/11/16 11:42:14;;;;;;;7.78;1.63;;;16.30;99.90;;;;;;5033949;28;20478;-72
2022/11/16 11:44:56;;;;;;;7.95;1.45;;;16.20;99.90;;;;;;5033062;28;20041;-72
2022/11/16 11:47:39;;;;;;;13.07;1.88;;;15.90;99.90;;;;;;5036159;28;20031;-72
2022/11/16 11:50:10;;;;;;;5.60;1.23;;;16.00;99.90;;;;;;5033945;28;20025;-71
2022/11/16 11:52:59;;;;;;;8.38;1.65;;;16.00;99.90;;;;;;5026756;28;20060;-76
2022/11/16 11:55:25;;;;;;;6.07;1.30;;;15.90;99.90;;;;;;5044341;28;20040;-73
2022/11/16 11:57:52;;;;;;;6.97;1.30;;;16.00;99.90;;;;;;5031276;28;20025;-73
2022/11/16 12:00:18;;;;;;;9.60;1.23;;;16.10;99.90;;;;;;5025703;28;20021;-74
2022/11/16 12:03:27;;;;;;;9.15;1.33;;;16.00;99.90;;;;;;5030446;28;20466;-72
2022/11/16 12:05:53;;;;;;;10.52;2.80;;;16.50;99.90;;;;;;5032839;28;20033;-73
2022/11/16 12:08:35;;;;;;;48.92;14.55;;;16.90;99.90;;;;;;5030704;28;20026;-70
2022/11/16 12:11:12;;;;;;;7.82;1.85;;;16.50;99.90;;;;;;5030643;28;20553;-72
2022/11/16 12:14:13;;;;;;;9.95;2.22;;;16.00;99.90;;;;;;5023237;28;20033;-72
2022/11/16 12:16:59;;;;;;;3.90;1.52;;;16.00;99.90;;;;;;4996530;28;20026;-72
2022/11/16 12:19:56;;;;;;;3.58;1.45;;;16.20;99.90;;;;;;5028868;28;20063;-75
2022/11/16 12:22:49;;;;;;;8.13;1.80;;;16.90;99.90;;;;;;5029253;28;20032;-73
2022/11/16 12:25:24;;;;;;;2.67;1.13;;;17.50;99.90;;;;;;5030429;28;20057;-73
2022/11/16 12:28:20;;;;;;;6.60;1.77;;;17.70;98.70;;;;;;5030023;28;20070;-71
2022/11/16 12:31:03;;;;;;;6.90;1.55;;;17.70;97.90;;;;;;5043037;28;20718;-72
2022/11/16 12:33:51;;;;;;;3.13;0.93;;;18.00;97.90;;;;;;5032332;28;20086;-73
2022/11/16 12:36:23;;;;;;;5.05;1.20;;;17.80;96.90;;;;;;5030766;28;20068;-73
2022/11/16 12:38:58;;;;;;;4.93;1.30;;;17.40;95.80;;;;;;5032480;28;20060;-71
2022/11/16 12:41:45;;;;;;;4.82;1.40;;;17.10;97.30;;;;;;5045991;28;20080;-73
2022/11/16 12:44:44;;;;;;;6.57;1.10;;;16.90;98.30;;;;;;5026254;28;20449;-72
2022/11/16 12:47:17;;;;;;;4.20;1.08;;;17.00;98.60;;;;;;5019119;28;20142;-72
2022/11/16 12:49:55;;;;;;;6.60;1.20;;;16.90;98.30;;;;;;5024859;28;20025;-73
2022/11/16 12:53:03;;;;;;;5.75;1.80;;;16.90;98.20;;;;;;5030293;28;20029;-72
2022/11/16 12:56:05;;;;;;;4.97;1.67;;;16.60;98.70;;;;;;5023315;28;20030;-73
2022/11/16 12:58:48;;;;;;;12.95;1.90;;;16.30;99.50;;;;;;5035331;28;20057;-73
2022/11/16 13:01:21;;;;;;;3.92;1.15;;;16.00;99.90;;;;;;5034512;28;20029;-73
2022/11/16 13:03:52;;;;;;;5.57;1.40;;;15.90;99.90;;;;;;5027457;28;20352;-71
2022/11/16 13:06:26;;;;;;;7.22;1.05;;;15.60;99.90;;;;;;5031098;28;20164;-71
2022/11/16 13:08:54;;;;;;;6.53;1.13;;;15.60;99.90;;;;;;5028908;28;20067;-73
2022/11/16 13:11:28;;;;;;;4.70;1.33;;;15.70;99.90;;;;;;5027213;28;20034;-72
2022/11/16 13:14:01;;;;;;;8.85;1.20;;;15.60;99.90;;;;;;5026663;28;20084;-71
2022/11/16 13:16:27;;;;;;;10.85;1.48;;;15.50;99.90;;;;;;5026361;28;20026;-71
2022/11/16 13:19:00;;;;;;;3.97;1.50;;;15.80;99.90;;;;;;5029456;28;20052;-72
2022/11/16 13:21:39;;;;;;;9.52;1.30;;;18.90;98.90;;;;;;5021183;28;20133;-73
2022/11/16 13:24:25;;;;;;;5.70;2.05;;;25.10;75.40;;;;;;5032569;28;20021;-73
2022/11/16 13:26:58;;;;;;;4.95;1.30;;;30.30;52.20;;;;;;5034490;28;20062;-72
2022/11/16 13:29:33;;;;;;;3.33;1.23;;;33.50;45.10;;;;;;5035144;28;20071;-72
2022/11/16 13:32:01;;;;;;;8.63;1.60;;;35.70;40.00;;;;;;5033436;28;20029;-72
2022/11/16 13:34:36;;;;;;;5.85;1.48;;;36.00;38.30;;;;;;5051614;28;20534;-73
2022/11/16 13:37:37;;;;;;;4.63;1.65;;;34.10;38.00;;;;;;5033610;28;20420;-71
2022/11/16 13:40:03;;;;;;;7.10;1.40;;;31.70;40.10;;;;;;5031400;28;20470;-72
2022/11/16 13:43:07;;;;;;;9.25;1.80;;;33.30;39.40;;;;;;5030005;28;20072;-72
2022/11/16 13:45:48;;;;;;;4.00;1.23;;;34.90;37.60;;;;;;5034520;28;20268;-72
2022/11/16 13:48:22;;;;;;;8.18;1.58;;;36.00;35.70;;;;;;5051068;28;20033;-73
2022/11/16 13:50:52;;;;;;;5.82;1.70;;;37.40;33.80;;;;;;5035383;28;20040;-72
2022/11/16 13:53:25;;;;;;;5.35;2.00;;;36.60;32.80;;;;;;5039542;28;20104;-73
2022/11/16 13:56:00;;;;;;;8.00;1.63;;;37.70;33.70;;;;;;5034972;28;20029;-72